createdAt,value
2017-08-25T00:00:19.631Z,7.00
2017-08-25T00:02:53.124Z,4.25
2017-08-25T00:05:26.682Z,2.53
2017-08-25T00:08:00.346Z,2.62
2017-08-25T00:10:33.971Z,4.20
2017-08-25T00:13:07.684Z,7.60
2017-08-25T00:15:41.219Z,2.80
2017-08-25T00:18:14.755Z,3.60
2017-08-25T00:20:48.558Z,10.90
2017-08-25T00:23:22.084Z,4.37
2017-08-25T00:25:55.646Z,2.33
2017-08-25T00:28:29.491Z,3.20
2017-08-25T00:31:03.163Z,4.70
2017-08-25T00:33:36.803Z,3.85
2017-08-25T00:36:10.415Z,5.45
2017-08-25T00:38:44.059Z,5.10
2017-08-25T00:41:17.753Z,4.22
2017-08-25T00:43:51.525Z,3.78
2017-08-25T00:46:25.046Z,3.97
2017-08-25T00:48:58.624Z,4.55
2017-08-25T00:51:32.270Z,3.25
2017-08-25T00:54:05.816Z,2.97
2017-08-25T00:56:39.323Z,2.70
2017-08-25T00:59:12.861Z,2.20
2017-08-25T01:01:46.408Z,2.53
2017-08-25T01:04:19.985Z,4.00
2017-08-25T01:06:53.653Z,2.95
2017-08-25T01:09:27.178Z,5.43
2017-08-25T01:12:00.761Z,3.15
2017-08-25T01:14:34.342Z,6.55
2017-08-25T01:17:08.018Z,1.67
2017-08-25T01:19:41.769Z,3.33
2017-08-25T01:22:15.430Z,4.40
2017-08-25T01:24:49.002Z,2.70
2017-08-25T01:27:22.532Z,3.30
2017-08-25T01:29:56.256Z,3.03
2017-08-25T01:32:29.775Z,3.45
2017-08-25T01:35:03.322Z,3.70
2017-08-25T01:37:36.942Z,2.67
2017-08-25T01:40:10.504Z,1.98
2017-08-25T01:42:44.175Z,4.28
2017-08-25T01:45:17.882Z,3.05
2017-08-25T01:47:51.480Z,4.90
2017-08-25T01:50:25.059Z,2.70
2017-08-25T01:52:58.611Z,2.40
2017-08-25T01:55:33.067Z,2.37
2017-08-25T01:58:06.755Z,2.10
2017-08-25T02:00:40.491Z,2.72
2017-08-25T02:03:14.018Z,2.37
2017-08-25T02:05:47.729Z,4.00
2017-08-25T02:08:21.320Z,2.10
2017-08-25T02:10:55.061Z,2.87
2017-08-25T02:13:28.584Z,3.00
2017-08-25T02:16:02.472Z,7.07
2017-08-25T02:18:36.144Z,2.67
2017-08-25T02:21:09.773Z,1.65
2017-08-25T02:23:43.398Z,4.25
2017-08-25T02:26:16.955Z,2.55
2017-08-25T02:28:51.399Z,1.60
2017-08-25T02:31:24.976Z,5.03
2017-08-25T02:33:58.590Z,2.50
2017-08-25T02:36:32.290Z,3.05
2017-08-25T02:39:05.913Z,1.77
2017-08-25T02:41:39.656Z,3.33
2017-08-25T02:44:13.353Z,2.00
2017-08-25T02:46:46.959Z,2.45
2017-08-25T02:49:20.538Z,1.60
2017-08-25T02:51:54.115Z,2.33
2017-08-25T02:54:27.646Z,2.35
2017-08-25T02:57:01.289Z,1.98
2017-08-25T02:59:34.884Z,1.60
2017-08-25T03:02:08.439Z,2.10
2017-08-25T03:04:42.726Z,1.48
2017-08-25T03:07:16.222Z,3.78
2017-08-25T03:09:49.792Z,1.55
2017-08-25T03:12:24.324Z,1.70
2017-08-25T03:14:58.145Z,2.72
2017-08-25T03:17:31.786Z,3.40
2017-08-25T03:20:05.468Z,2.35
2017-08-25T03:22:39.198Z,1.75
2017-08-25T03:25:12.784Z,3.10
2017-08-25T03:27:46.426Z,11.90
2017-08-25T03:30:19.970Z,2.00
2017-08-25T03:32:53.653Z,2.90
2017-08-25T03:35:27.221Z,8.73
2017-08-25T03:38:00.919Z,3.62
2017-08-25T03:40:34.548Z,6.40
2017-08-25T03:43:08.130Z,3.00
2017-08-25T03:45:41.699Z,1.70
2017-08-25T03:48:15.291Z,2.17
2017-08-25T03:50:49.054Z,3.17
2017-08-25T03:53:22.658Z,1.70
2017-08-25T03:55:56.284Z,2.05
2017-08-25T03:58:29.862Z,1.50
2017-08-25T04:01:03.447Z,1.30
2017-08-25T04:03:37.152Z,1.60
2017-08-25T04:06:10.807Z,1.90
2017-08-25T04:08:44.342Z,1.25
2017-08-25T04:11:17.983Z,1.42
2017-08-25T04:13:51.505Z,5.87
2017-08-25T04:16:25.155Z,1.35
2017-08-25T04:18:58.683Z,3.97
2017-08-25T04:21:32.309Z,1.00
2017-08-25T04:24:05.884Z,1.23
2017-08-25T04:26:39.609Z,1.35
2017-08-25T04:29:13.399Z,1.65
2017-08-25T04:31:46.972Z,1.40
2017-08-25T04:34:20.534Z,1.20
2017-08-25T04:36:54.093Z,1.48
2017-08-25T04:39:27.670Z,1.62
2017-08-25T04:42:01.299Z,7.95
2017-08-25T04:44:35.580Z,3.15
2017-08-25T04:47:09.300Z,5.47
2017-08-25T04:49:42.800Z,1.27
2017-08-25T04:52:16.403Z,1.83
2017-08-25T04:54:49.965Z,1.77
2017-08-25T04:57:23.574Z,2.35
2017-08-25T04:59:57.287Z,1.40
2017-08-25T05:02:30.887Z,2.42
2017-08-25T05:05:04.393Z,4.85
2017-08-25T05:07:37.992Z,2.80
2017-08-25T05:10:11.542Z,1.35
2017-08-25T05:12:45.255Z,2.28
2017-08-25T05:15:19.014Z,3.25
2017-08-25T05:17:52.575Z,1.45
2017-08-25T05:20:26.178Z,1.40
2017-08-25T05:22:59.962Z,1.30
2017-08-25T05:25:33.482Z,3.05
2017-08-25T05:28:07.027Z,1.23
2017-08-25T05:30:40.642Z,2.35
2017-08-25T05:33:14.368Z,2.00
2017-08-25T05:35:50.256Z,1.80
2017-08-25T05:38:25.230Z,3.60
2017-08-25T05:40:59.145Z,1.30
2017-08-25T05:43:35.461Z,3.10
2017-08-25T05:46:10.255Z,3.92
2017-08-25T05:48:45.996Z,2.92
2017-08-25T05:51:22.027Z,2.17
2017-08-25T05:53:55.948Z,2.58
2017-08-25T05:56:29.641Z,7.80
2017-08-25T05:59:04.839Z,1.75
2017-08-25T06:01:38.992Z,5.07
2017-08-25T06:04:13.040Z,1.83
2017-08-25T06:06:46.873Z,1.75
2017-08-25T06:09:21.463Z,2.25
2017-08-25T06:11:56.404Z,2.50
2017-08-25T06:14:35.712Z,3.17
2017-08-25T06:17:15.065Z,4.07
2017-08-25T06:19:49.975Z,3.55
2017-08-25T06:22:27.994Z,2.95
2017-08-25T06:25:03.152Z,2.90
2017-08-25T06:27:41.305Z,2.08
2017-08-25T06:30:15.229Z,3.00
2017-08-25T06:32:54.435Z,2.42
2017-08-25T06:35:29.020Z,3.65
2017-08-25T06:38:04.395Z,4.28
2017-08-25T06:40:40.850Z,4.28
2017-08-25T06:43:15.893Z,2.58
2017-08-25T06:45:51.492Z,3.40
2017-08-25T06:48:28.474Z,6.65
2017-08-25T06:51:03.147Z,5.62
2017-08-25T06:53:38.402Z,4.87
2017-08-25T06:56:15.062Z,3.25
2017-08-25T06:58:48.772Z,3.00
2017-08-25T07:01:23.641Z,4.65
2017-08-25T07:04:01.228Z,3.30
2017-08-25T07:06:35.201Z,3.20
2017-08-25T07:09:09.818Z,3.83
2017-08-25T07:11:47.213Z,3.30
2017-08-25T07:14:23.296Z,4.40
2017-08-25T07:16:59.374Z,5.28
2017-08-25T07:19:39.105Z,9.68
2017-08-25T07:22:15.591Z,2.67
2017-08-25T07:24:49.337Z,2.90
2017-08-25T07:27:38.993Z,3.70
2017-08-25T07:30:14.184Z,3.40
2017-08-25T07:32:48.117Z,5.05
2017-08-25T07:35:25.414Z,3.62
2017-08-25T07:38:00.345Z,7.15
2017-08-25T07:40:34.100Z,3.65
2017-08-25T07:43:08.466Z,4.15
2017-08-25T07:45:45.571Z,9.35
2017-08-25T07:48:20.301Z,4.53
2017-08-25T07:50:56.801Z,9.82
2017-08-25T07:53:33.913Z,10.95
2017-08-25T07:56:09.044Z,5.37
2017-08-25T07:58:43.987Z,7.62
2017-08-25T08:01:19.210Z,4.72
2017-08-25T08:03:53.732Z,4.75
2017-08-25T08:06:29.043Z,2.58
2017-08-25T08:09:03.956Z,3.83
2017-08-25T08:11:40.817Z,3.62
2017-08-25T08:14:16.118Z,3.70
2017-08-25T08:16:50.920Z,2.90
2017-08-25T08:19:25.520Z,3.72
2017-08-25T08:21:59.556Z,5.60
2017-08-25T08:24:33.888Z,4.65
2017-08-25T08:27:08.512Z,3.70
2017-08-25T08:29:43.001Z,6.90
2017-08-25T08:32:16.696Z,8.48
2017-08-25T08:34:50.456Z,3.67
2017-08-25T08:37:25.856Z,6.75
2017-08-25T08:40:01.661Z,4.87
2017-08-25T08:42:36.350Z,6.55
2017-08-25T08:45:11.437Z,5.32
2017-08-25T08:47:46.179Z,6.30
2017-08-25T08:50:21.577Z,4.60
2017-08-25T08:52:55.374Z,6.80
2017-08-25T08:55:30.856Z,5.25
2017-08-25T08:58:09.709Z,4.12
2017-08-25T09:00:45.286Z,3.20
2017-08-25T09:03:20.085Z,3.53
2017-08-25T09:06:02.083Z,3.03
2017-08-25T09:08:38.282Z,7.20
2017-08-25T09:11:16.462Z,3.28
2017-08-25T09:13:56.185Z,4.85
2017-08-25T09:16:29.867Z,5.20
2017-08-25T09:19:04.604Z,4.40
2017-08-25T09:21:42.545Z,5.62
2017-08-25T09:24:18.118Z,4.10
2017-08-25T09:26:53.988Z,4.85
2017-08-25T09:29:27.858Z,3.80
2017-08-25T09:32:06.353Z,4.25
2017-08-25T09:34:40.524Z,3.33
2017-08-25T09:37:15.809Z,12.13
2017-08-25T09:39:49.397Z,5.45
2017-08-25T09:42:23.960Z,6.10
2017-08-25T09:44:58.397Z,7.80
2017-08-25T09:47:33.452Z,14.32
2017-08-25T09:50:07.389Z,7.85
2017-08-25T09:52:41.225Z,6.25
2017-08-25T09:55:15.204Z,4.80
2017-08-25T09:57:49.231Z,3.60
2017-08-25T10:00:23.748Z,3.78
2017-08-25T10:02:58.137Z,4.50
2017-08-25T10:05:32.829Z,7.10
2017-08-25T10:08:08.156Z,7.35
2017-08-25T10:10:44.093Z,4.22
2017-08-25T10:13:18.700Z,6.80
2017-08-25T10:15:54.581Z,6.90
2017-08-25T10:18:29.898Z,6.20
2017-08-25T10:21:04.776Z,6.07
2017-08-25T10:23:41.353Z,18.25
2017-08-25T10:26:16.159Z,7.30
2017-08-25T10:28:50.188Z,7.47
2017-08-25T10:31:24.995Z,6.47
2017-08-25T10:34:00.438Z,8.40
2017-08-25T10:36:47.318Z,8.35
2017-08-25T10:39:32.937Z,7.97
2017-08-25T10:42:18.799Z,5.37
2017-08-25T10:45:02.669Z,5.57
2017-08-25T10:47:37.465Z,6.53
2017-08-25T10:50:11.460Z,6.30
2017-08-25T10:52:45.271Z,4.32
2017-08-25T10:55:21.859Z,8.07
2017-08-25T10:57:55.583Z,8.82
2017-08-25T11:00:29.192Z,9.23
2017-08-25T11:03:04.795Z,5.47
2017-08-25T11:05:42.384Z,5.20
2017-08-25T11:08:18.452Z,3.78
2017-08-25T11:10:55.251Z,4.12
2017-08-25T11:13:30.651Z,11.48
2017-08-25T11:16:07.469Z,5.65
2017-08-25T11:18:41.407Z,6.00
2017-08-25T11:21:16.260Z,6.30
2017-08-25T11:23:52.561Z,7.10
2017-08-25T11:26:26.545Z,7.90
2017-08-25T11:29:00.991Z,7.90
2017-08-25T11:31:37.240Z,7.45
2017-08-25T11:34:12.148Z,7.00
2017-08-25T11:36:51.689Z,9.25
2017-08-25T11:39:26.049Z,11.15
2017-08-25T11:42:03.348Z,5.22
2017-08-25T11:44:38.033Z,6.22
2017-08-25T11:47:12.732Z,5.87
2017-08-25T11:49:47.683Z,5.68
2017-08-25T11:55:07.510Z,14.00
2017-08-25T11:57:42.100Z,8.13
2017-08-25T12:00:16.763Z,9.98
2017-08-25T12:02:50.654Z,8.48
2017-08-25T12:05:26.307Z,4.93
2017-08-25T12:08:00.349Z,8.25
2017-08-25T12:10:35.865Z,5.40
2017-08-25T12:13:09.901Z,3.35
2017-08-25T12:15:43.759Z,3.90
2017-08-25T12:18:20.635Z,4.60
2017-08-25T12:20:54.432Z,5.22
2017-08-25T12:23:32.155Z,7.00
2017-08-25T12:26:08.560Z,8.88
2017-08-25T12:28:45.589Z,7.47
2017-08-25T12:31:22.249Z,9.32
2017-08-25T12:34:00.920Z,4.85
2017-08-25T12:36:34.747Z,6.60
2017-08-25T12:39:09.258Z,4.82
2017-08-25T12:41:45.032Z,3.65
2017-08-25T12:44:19.625Z,6.90
2017-08-25T12:46:55.670Z,4.07
2017-08-25T12:49:30.885Z,4.62
2017-08-25T12:52:05.582Z,3.62
2017-08-25T12:54:41.430Z,6.62
2017-08-25T12:57:17.615Z,5.20
2017-08-25T12:59:52.381Z,5.70
2017-08-25T13:02:26.261Z,3.92
2017-08-25T13:05:00.157Z,6.10
2017-08-25T13:07:34.135Z,6.43
2017-08-25T13:10:08.906Z,4.20
2017-08-25T13:12:48.222Z,6.50
2017-08-25T13:15:23.011Z,4.87
2017-08-25T13:17:59.028Z,6.00
2017-08-25T13:20:33.749Z,3.25
2017-08-25T13:23:07.650Z,6.47
2017-08-25T13:25:41.832Z,9.70
2017-08-25T13:28:17.242Z,6.82
2017-08-25T13:30:55.405Z,8.93
2017-08-25T13:33:29.572Z,6.75
2017-08-25T13:36:04.794Z,5.15
2017-08-25T13:38:44.714Z,6.28
2017-08-25T13:41:18.400Z,4.05
2017-08-25T13:43:52.092Z,6.80
2017-08-25T13:46:25.746Z,9.55
2017-08-25T13:48:59.452Z,7.55
2017-08-25T13:51:32.997Z,7.72
2017-08-25T13:54:06.656Z,7.53
2017-08-25T13:56:43.731Z,4.55
2017-08-25T13:59:17.291Z,4.75
2017-08-25T14:01:51.100Z,5.10
2017-08-25T14:04:24.910Z,6.15
2017-08-25T14:06:58.693Z,5.37
2017-08-25T14:09:33.666Z,4.70
2017-08-25T14:12:08.598Z,6.60
2017-08-25T14:14:44.474Z,7.95
2017-08-25T14:17:19.694Z,4.10
2017-08-25T14:19:57.290Z,3.80
2017-08-25T14:22:31.295Z,6.97
2017-08-25T14:25:05.182Z,10.05
2017-08-25T14:27:40.012Z,5.45
2017-08-25T14:30:14.457Z,8.40
2017-08-25T14:32:52.224Z,4.87
2017-08-25T14:35:28.598Z,4.82
2017-08-25T14:38:03.587Z,4.72
2017-08-25T14:40:37.472Z,6.90
2017-08-25T14:43:12.183Z,5.68
2017-08-25T14:45:46.808Z,5.65
2017-08-25T14:48:21.532Z,3.78
2017-08-25T14:50:57.093Z,6.03
2017-08-25T14:53:31.759Z,4.95
2017-08-25T14:56:05.438Z,10.30
2017-08-25T14:58:39.141Z,5.18
2017-08-25T15:01:12.854Z,5.35
2017-08-25T15:03:46.396Z,7.22
2017-08-25T15:06:20.001Z,10.55
2017-08-25T15:08:53.674Z,4.45
2017-08-25T15:11:27.245Z,3.80
2017-08-25T15:14:00.789Z,7.12
2017-08-25T15:16:34.447Z,7.97
2017-08-25T15:19:08.035Z,4.30
2017-08-25T15:21:41.621Z,3.25
2017-08-25T15:24:15.401Z,4.18
2017-08-25T15:26:48.952Z,11.52
2017-08-25T15:29:22.668Z,3.97
2017-08-25T15:31:56.351Z,5.65
2017-08-25T15:34:29.879Z,4.15
2017-08-25T15:37:03.636Z,6.10
2017-08-25T15:39:37.338Z,9.52
2017-08-25T15:42:10.915Z,6.10
2017-08-25T15:44:44.569Z,4.35
2017-08-25T15:47:18.126Z,3.40
2017-08-25T15:49:51.701Z,5.45
2017-08-25T15:52:25.417Z,7.28
2017-08-25T15:54:58.950Z,5.32
2017-08-25T15:57:32.480Z,6.35
2017-08-25T16:00:07.027Z,4.65
2017-08-25T16:02:40.562Z,5.32
2017-08-25T16:05:14.231Z,4.72
2017-08-25T16:07:47.914Z,3.47
2017-08-25T16:10:21.739Z,4.78
2017-08-25T16:12:55.368Z,5.85
2017-08-25T16:15:29.864Z,5.10
2017-08-25T16:18:03.419Z,7.97
2017-08-25T16:20:37.103Z,7.65
2017-08-25T16:23:11.583Z,3.65
2017-08-25T16:25:45.205Z,4.18
2017-08-25T16:28:18.980Z,6.60
2017-08-25T16:30:52.673Z,5.55
2017-08-25T16:33:26.278Z,5.47
2017-08-25T16:35:59.989Z,11.10
2017-08-25T16:38:33.495Z,7.82
2017-08-25T16:41:08.024Z,7.05
2017-08-25T16:43:41.571Z,3.30
2017-08-25T16:46:15.271Z,7.82
2017-08-25T16:48:48.868Z,5.50
2017-08-25T16:51:22.623Z,7.18
2017-08-25T16:53:56.302Z,5.35
2017-08-25T16:56:30.013Z,7.05
2017-08-25T16:59:03.690Z,11.57
2017-08-25T17:01:37.272Z,5.22
2017-08-25T17:04:10.767Z,4.45
2017-08-25T17:06:44.325Z,6.87
2017-08-25T17:09:17.979Z,3.78
2017-08-25T17:11:51.682Z,4.32
2017-08-25T17:14:25.246Z,3.72
2017-08-25T17:16:59.674Z,11.25
2017-08-25T17:19:33.215Z,6.47
2017-08-25T17:22:06.797Z,4.68
2017-08-25T17:24:40.475Z,7.03
2017-08-25T17:27:14.035Z,9.85
2017-08-25T17:29:47.712Z,6.28
2017-08-25T17:32:21.233Z,7.55
2017-08-25T17:34:55.734Z,7.25
2017-08-25T17:37:29.326Z,6.87
2017-08-25T17:40:03.515Z,11.73
2017-08-25T17:42:37.201Z,10.88
2017-08-25T17:45:10.856Z,6.47
2017-08-25T17:47:44.559Z,6.40
2017-08-25T17:50:18.103Z,9.68
2017-08-25T17:52:51.749Z,7.10
2017-08-25T17:55:25.494Z,8.93
2017-08-25T17:57:59.209Z,6.30
2017-08-25T18:00:33.506Z,12.45
2017-08-25T18:03:07.243Z,10.73
2017-08-25T18:05:40.779Z,11.57
2017-08-25T18:08:14.431Z,11.50
2017-08-25T18:10:48.202Z,20.65
2017-08-25T18:13:21.940Z,29.42
2017-08-25T18:15:55.909Z,35.63
2017-08-25T18:18:29.441Z,29.45
2017-08-25T18:21:03.919Z,36.67
2017-08-25T18:23:37.519Z,22.17
2017-08-25T18:26:11.208Z,16.52
2017-08-25T18:28:44.926Z,20.88
2017-08-25T18:31:18.628Z,19.50
2017-08-25T18:33:52.250Z,18.52
2017-08-25T18:36:25.839Z,15.50
2017-08-25T18:38:59.457Z,16.73
2017-08-25T18:41:33.066Z,14.05
2017-08-25T18:44:07.388Z,11.70
2017-08-25T18:46:40.891Z,16.20
2017-08-25T18:49:14.623Z,13.07
2017-08-25T18:51:48.168Z,13.02
2017-08-25T18:54:21.806Z,19.90
2017-08-25T18:56:55.712Z,14.80
2017-08-25T18:59:29.412Z,20.17
2017-08-25T19:02:03.082Z,34.97
2017-08-25T19:04:36.681Z,25.10
2017-08-25T19:07:10.342Z,24.30
2017-08-25T19:09:43.937Z,23.25
2017-08-25T19:12:17.685Z,26.30
2017-08-25T19:14:51.272Z,28.15
2017-08-25T19:17:24.881Z,20.73
2017-08-25T19:19:58.566Z,20.35
2017-08-25T19:22:32.119Z,16.90
2017-08-25T19:25:05.698Z,17.50
2017-08-25T19:27:39.385Z,12.10
2017-08-25T19:30:13.160Z,14.13
2017-08-25T19:32:46.832Z,17.77
2017-08-25T19:35:20.535Z,14.13
2017-08-25T19:37:54.296Z,11.90
2017-08-25T19:40:27.952Z,9.20
2017-08-25T19:43:02.323Z,10.48
2017-08-25T19:45:35.975Z,8.95
2017-08-25T19:48:09.565Z,9.07
2017-08-25T19:50:43.112Z,11.02
2017-08-25T19:53:16.616Z,9.38
2017-08-25T19:55:51.051Z,10.35
2017-08-25T19:58:24.625Z,15.80
2017-08-25T20:00:58.214Z,10.50
2017-08-25T20:03:31.723Z,11.27
2017-08-25T20:06:05.482Z,12.30
2017-08-25T20:08:39.149Z,12.37
2017-08-25T20:11:12.753Z,11.95
2017-08-25T20:13:46.331Z,23.62
2017-08-25T20:16:19.933Z,9.55
2017-08-25T20:18:53.518Z,12.15
2017-08-25T20:21:27.963Z,10.30
2017-08-25T20:24:01.544Z,12.90
2017-08-25T20:26:35.199Z,8.73
2017-08-25T20:29:08.960Z,10.95
2017-08-25T20:31:42.529Z,10.52
2017-08-25T20:34:16.210Z,11.40
2017-08-25T20:36:49.775Z,9.23
2017-08-25T20:39:23.322Z,12.20
2017-08-25T20:41:57.008Z,12.05
2017-08-25T20:44:30.767Z,11.43
2017-08-25T20:47:04.315Z,10.90
2017-08-25T20:49:37.869Z,13.35
2017-08-25T20:52:11.474Z,9.55
2017-08-25T20:54:45.026Z,10.35
2017-08-25T20:57:18.627Z,10.85
2017-08-25T20:59:52.328Z,7.35
2017-08-25T21:02:26.029Z,12.77
2017-08-25T21:04:59.605Z,11.38
2017-08-25T21:07:33.236Z,10.95
2017-08-25T21:10:07.662Z,10.18
2017-08-25T21:12:41.439Z,14.13
2017-08-25T21:15:14.919Z,11.10
2017-08-25T21:17:48.593Z,12.35
2017-08-25T21:20:22.328Z,12.02
2017-08-25T21:22:56.034Z,9.05
2017-08-25T21:25:30.297Z,11.27
2017-08-25T21:28:04.056Z,12.13
2017-08-25T21:30:37.616Z,12.13
2017-08-25T21:33:11.240Z,11.00
2017-08-25T21:35:45.004Z,14.27
2017-08-25T21:38:18.546Z,18.02
2017-08-25T21:40:52.116Z,11.07
2017-08-25T21:43:25.738Z,14.70
2017-08-25T21:45:59.378Z,16.70
2017-08-25T21:48:33.030Z,16.27
2017-08-25T21:51:06.574Z,16.12
2017-08-25T21:53:40.102Z,12.80
2017-08-25T21:56:13.784Z,9.27
2017-08-25T21:58:47.331Z,14.68
2017-08-25T22:01:20.828Z,12.32
2017-08-25T22:03:54.344Z,11.63
2017-08-25T22:06:27.907Z,14.48
2017-08-25T22:09:01.540Z,12.85
2017-08-25T22:11:35.089Z,13.38
2017-08-25T22:14:09.445Z,10.80
2017-08-25T22:16:43.237Z,12.27
2017-08-25T22:19:16.807Z,13.45
2017-08-25T22:21:50.539Z,14.15
2017-08-25T22:24:24.144Z,14.80
2017-08-25T22:29:55.219Z,16.75
2017-08-25T22:32:28.933Z,19.42
2017-08-25T22:35:02.620Z,16.12
2017-08-25T22:37:36.188Z,11.02
2017-08-25T22:40:09.714Z,15.10
2017-08-25T22:42:43.431Z,14.20
2017-08-25T22:45:17.002Z,8.98
2017-08-25T22:47:50.618Z,9.50
2017-08-25T22:50:24.198Z,13.02
2017-08-25T22:52:57.918Z,11.70
2017-08-25T22:55:31.486Z,13.98
2017-08-25T22:58:05.060Z,17.48
2017-08-25T23:00:38.668Z,8.48
2017-08-25T23:03:12.410Z,12.63
2017-08-25T23:05:46.159Z,11.88
2017-08-25T23:08:19.729Z,13.38
2017-08-25T23:10:53.449Z,11.98
2017-08-25T23:13:27.057Z,10.55
2017-08-25T23:16:00.751Z,17.05
2017-08-25T23:18:34.543Z,11.95
2017-08-25T23:21:08.079Z,11.32
2017-08-25T23:23:41.664Z,16.75
2017-08-25T23:26:15.260Z,12.88
2017-08-25T23:28:48.909Z,14.13
2017-08-25T23:31:22.582Z,7.87
2017-08-25T23:33:56.116Z,11.90
2017-08-25T23:36:29.641Z,7.75
2017-08-25T23:39:03.242Z,11.77
2017-08-25T23:41:36.913Z,8.10
2017-08-25T23:44:10.494Z,8.77
2017-08-25T23:46:44.022Z,7.55
2017-08-25T23:49:17.592Z,18.37
2017-08-25T23:51:51.206Z,8.40
2017-08-25T23:54:24.880Z,8.65
2017-08-25T23:56:58.452Z,11.05
2017-08-25T23:59:32.049Z,18.77
